Time;durP1;ratioP1;P1;durP2;ratioP2;P2;SDS_P1;SDS_P2;PMS_P1;PMS_P2;Temp;Humidity;BMP_temperature;BMP_pressure;BME280_temperature;BME280_humidity;BME280_pressure;Samples;Min_cycle;Max_cycle;Signal;HPM_P1;HPM_P2
2023/08/18 00:01:38;;;;;;;7.57;5.70;;;;;;;22.37;nan;99357.59;5074314;28;20207;-77
2023/08/18 00:04:04;;;;;;;5.53;4.90;;;;;;;22.36;nan;99357.75;5070102;28;20936;-77
2023/08/18 00:06:30;;;;;;;5.77;5.17;;;;;;;22.34;nan;99365.16;5070278;28;20438;-76
2023/08/18 00:08:55;;;;;;;6.50;5.90;;;;;;;22.32;nan;99354.59;5073647;28;20427;-76
2023/08/18 00:11:20;;;;;;;9.90;6.90;;;;;;;22.27;nan;99357.00;5069985;28;20196;-76
2023/08/18 00:13:46;;;;;;;6.57;5.87;;;;;;;22.19;nan;99360.56;5071068;28;20201;-76
2023/08/18 00:16:12;;;;;;;6.50;5.87;;;;;;;22.12;nan;99356.91;5068323;28;20196;-76
2023/08/18 00:18:37;;;;;;;5.23;4.57;;;;;;;22.07;nan;99362.78;5073929;28;20200;-76
2023/08/18 00:21:03;;;;;;;7.00;4.60;;;;;;;21.99;nan;99359.34;5074749;28;20429;-76
2023/08/18 00:23:28;;;;;;;7.73;5.83;;;;;;;21.91;nan;99362.91;5073649;28;20248;-77
2023/08/18 00:25:53;;;;;;;5.07;4.67;;;;;;;21.86;nan;99355.41;5072541;28;20188;-76
2023/08/18 00:28:19;;;;;;;4.77;4.37;;;;;;;21.81;nan;99363.13;5070768;28;20197;-76
2023/08/18 00:30:44;;;;;;;6.43;5.93;;;;;;;21.75;nan;99361.16;5074405;28;20708;-77
2023/08/18 00:33:09;;;;;;;5.07;4.67;;;;;;;21.69;nan;99359.19;5070793;28;20337;-77
2023/08/18 00:35:35;;;;;;;9.83;6.27;;;;;;;21.60;nan;99361.06;5072561;28;20184;-76
2023/08/18 00:38:00;;;;;;;4.80;4.30;;;;;;;21.54;nan;99368.94;5070154;28;20196;-76
2023/08/18 00:40:28;;;;;;;6.57;5.97;;;;;;;21.49;nan;99366.78;5069710;28;20593;-76
2023/08/18 00:42:54;;;;;;;7.27;6.23;;;;;;;21.42;nan;99360.50;5070070;28;20962;-76
2023/08/18 00:45:19;;;;;;;6.03;5.43;;;;;;;21.37;nan;99363.66;5071668;28;20204;-76
2023/08/18 00:47:45;;;;;;;8.30;6.40;;;;;;;21.38;nan;99367.16;5070172;28;20314;-76
2023/08/18 00:50:12;;;;;;;8.07;6.00;;;;;;;21.38;nan;99361.81;5071420;28;20432;-76
2023/08/18 00:52:39;;;;;;;8.27;6.07;;;;;;;21.40;nan;99359.81;5072162;28;20279;-77
2023/08/18 00:55:06;;;;;;;14.53;6.77;;;;;;;21.35;nan;99362.97;5070009;28;20453;-76
2023/08/18 00:57:34;;;;;;;6.97;6.10;;;;;;;21.31;nan;99360.84;5066506;28;20585;-77
2023/08/18 01:00:02;;;;;;;7.90;6.57;;;;;;;21.30;nan;99354.63;5068717;28;20491;-77
2023/08/18 01:02:27;;;;;;;6.43;5.83;;;;;;;21.31;nan;99350.16;5071032;28;20457;-77
2023/08/18 01:05:00;;;;;;;10.73;6.30;;;;;;;21.34;nan;99349.81;5071122;28;20838;-76
2023/08/18 01:07:25;;;;;;;7.00;6.00;;;;;;;21.38;nan;99341.28;5067023;28;20227;-77
2023/08/18 01:09:51;;;;;;;6.90;6.20;;;;;;;21.41;nan;99340.09;5069979;28;21195;-76
2023/08/18 01:12:38;;;;;;;5.90;4.70;;;;;;;21.35;nan;99335.44;5067575;28;20195;-76
2023/08/18 01:15:11;;;;;;;6.67;4.60;;;;;;;21.26;nan;99342.66;5069052;28;20274;-76
2023/08/18 01:18:01;;;;;;;6.50;5.20;;;;;;;21.20;nan;99338.00;5069823;28;20442;-76
2023/08/18 01:20:27;;;;;;;8.63;5.17;;;;;;;21.15;nan;99340.34;5068765;28;20411;-76
2023/08/18 01:22:57;;;;;;;9.63;6.87;;;;;;;21.14;nan;99341.34;5070186;28;20440;-76
2023/08/18 01:25:23;;;;;;;6.63;5.47;;;;;;;21.10;nan;99345.38;5074379;28;20430;-76
2023/08/18 01:27:50;;;;;;;9.17;5.73;;;;;;;21.07;nan;99343.06;5073035;28;20434;-76
2023/08/18 01:30:17;;;;;;;7.57;5.30;;;;;;;21.07;nan;99343.88;5073543;28;20426;-76
2023/08/18 01:32:58;;;;;;;9.53;6.30;;;;;;;21.07;nan;99341.22;5073811;28;20457;-77
2023/08/18 01:35:27;;;;;;;5.95;5.45;;;;;;;21.05;nan;99345.88;5076126;28;20422;-77
2023/08/18 01:37:54;;;;;;;6.43;5.67;;;;;;;21.03;nan;99341.72;5072369;28;20209;-77
2023/08/18 01:40:25;;;;;;;7.10;5.47;;;;;;;20.91;nan;99347.41;5074393;28;20438;-76
2023/08/18 01:42:52;;;;;;;5.90;5.30;;;;;;;20.83;nan;99341.28;5071206;28;20451;-76
2023/08/18 01:45:18;;;;;;;7.07;5.10;;;;;;;20.76;nan;99344.59;5069752;28;20436;-76
2023/08/18 01:47:43;;;;;;;8.63;6.43;;;;;;;20.74;nan;99343.13;5076403;28;20530;-77
2023/08/18 01:50:09;;;;;;;7.23;4.90;;;;;;;20.74;nan;99341.28;5074474;28;20270;-77
2023/08/18 01:52:35;;;;;;;8.20;6.30;;;;;;;20.74;nan;99343.97;5072948;28;20218;-76
2023/08/18 01:55:01;;;;;;;7.30;5.70;;;;;;;20.74;nan;99338.63;5075773;28;20456;-76
2023/08/18 01:57:26;;;;;;;5.73;5.13;;;;;;;20.77;nan;99334.78;5072237;28;20196;-76
2023/08/18 01:59:52;;;;;;;7.90;5.57;;;;;;;20.77;nan;99329.44;5090470;28;20210;-76
2023/08/18 02:02:17;;;;;;;6.40;5.63;;;;;;;20.73;nan;99325.44;5071993;28;20218;-77
2023/08/18 02:04:43;;;;;;;6.87;6.10;;;;;;;20.66;nan;99327.97;5069224;28;20206;-76
2023/08/18 02:07:08;;;;;;;7.50;5.20;;;;;;;20.64;nan;99321.13;5072467;28;20197;-77
2023/08/18 02:09:34;;;;;;;8.30;7.50;;;;;;;20.67;nan;99328.78;5073244;28;20194;-76
2023/08/18 02:12:01;;;;;;;5.73;4.73;;;;;;;20.65;nan;99323.59;5067854;28;20207;-76
2023/08/18 02:14:28;;;;;;;7.30;4.83;;;;;;;20.64;nan;99319.28;5072886;28;20432;-77
2023/08/18 02:16:53;;;;;;;7.87;6.40;;;;;;;20.66;nan;99327.13;5072062;28;21142;-76
2023/08/18 02:19:19;;;;;;;6.50;5.87;;;;;;;20.66;nan;99325.28;5072809;28;20682;-77
2023/08/18 02:21:44;;;;;;;8.00;7.23;;;;;;;20.63;nan;99322.09;5075563;28;20201;-76
2023/08/18 02:24:10;;;;;;;8.33;5.07;;;;;;;20.63;nan;99317.63;5072690;28;20199;-77
2023/08/18 02:26:36;;;;;;;5.00;4.50;;;;;;;20.62;nan;99313.28;5066916;28;20218;-76
2023/08/18 02:29:02;;;;;;;7.77;5.50;;;;;;;20.63;nan;99312.28;5070127;28;20563;-76
2023/08/18 02:31:27;;;;;;;6.70;5.20;;;;;;;20.64;nan;99316.63;5074856;28;20272;-76
2023/08/18 02:33:52;;;;;;;7.17;5.70;;;;;;;20.67;nan;99315.44;5070661;28;20903;-77
2023/08/18 02:36:18;;;;;;;4.40;3.83;;;;;;;20.68;nan;99323.25;5072245;28;20201;-76
2023/08/18 02:38:44;;;;;;;5.33;2.83;;;;;;;20.63;nan;99317.63;5073817;28;20199;-76
2023/08/18 02:41:10;;;;;;;3.70;3.40;;;;;;;20.55;nan;99320.31;5071465;28;20534;-77
2023/08/18 02:43:35;;;;;;;3.40;3.03;;;;;;;20.43;nan;99329.63;5071828;28;20592;-76
2023/08/18 02:46:01;;;;;;;3.80;2.93;;;;;;;20.33;nan;99324.44;5074789;28;20212;-77
2023/08/18 02:48:27;;;;;;;6.20;4.40;;;;;;;20.22;nan;99319.44;5073587;28;20205;-77
2023/08/18 02:51:03;;;;;;;4.40;3.27;;;;;;;20.12;nan;99322.28;5073731;28;20207;-76
2023/08/18 02:53:28;;;;;;;8.10;3.50;;;;;;;20.03;nan;99323.28;5070787;28;20494;-76
2023/08/18 02:55:54;;;;;;;4.47;3.40;;;;;;;19.94;nan;99319.78;5073000;28;20666;-77
2023/08/18 02:58:20;;;;;;;3.77;3.33;;;;;;;19.89;nan;99319.41;5067206;28;20202;-77
2023/08/18 03:00:45;;;;;;;9.93;4.07;;;;;;;19.89;nan;99314.91;5068931;28;20465;-76
2023/08/18 03:03:11;;;;;;;5.83;3.90;;;;;;;19.91;nan;99311.28;5073266;28;20657;-76
2023/08/18 03:05:37;;;;;;;4.37;3.97;;;;;;;19.92;nan;99310.25;5073053;28;20435;-76
2023/08/18 03:08:03;;;;;;;5.27;4.17;;;;;;;19.94;nan;99314.44;5070251;28;20201;-76
2023/08/18 03:10:29;;;;;;;5.37;3.90;;;;;;;19.93;nan;99307.44;5074135;28;20427;-78
2023/08/18 03:12:54;;;;;;;5.37;4.87;;;;;;;19.92;nan;99305.75;5085160;28;20515;-76
2023/08/18 03:15:20;;;;;;;6.20;4.73;;;;;;;19.88;nan;99309.78;5090963;28;20218;-76
2023/08/18 03:17:45;;;;;;;5.77;4.07;;;;;;;19.86;nan;99306.44;5071534;28;20631;-77
2023/08/18 03:20:11;;;;;;;5.20;4.70;;;;;;;19.85;nan;99302.94;5068755;28;20975;-77
2023/08/18 03:22:38;;;;;;;6.00;4.97;;;;;;;19.88;nan;99312.44;5072979;28;20731;-77
2023/08/18 03:25:03;;;;;;;6.10;4.10;;;;;;;19.88;nan;99309.78;5076629;28;20619;-76
2023/08/18 03:27:29;;;;;;;4.43;3.93;;;;;;;19.85;nan;99310.09;5070103;28;20296;-77
2023/08/18 03:29:55;;;;;;;7.90;4.70;;;;;;;19.81;nan;99304.25;5062083;28;20467;-77
2023/08/18 03:32:22;;;;;;;5.37;4.87;;;;;;;19.78;nan;99315.25;5071758;28;20209;-76
2023/08/18 03:34:47;;;;;;;5.03;4.20;;;;;;;19.76;nan;99311.91;5069814;28;20226;-76
2023/08/18 03:37:13;;;;;;;5.87;5.27;;;;;;;19.78;nan;99314.41;5063334;28;20555;-76
2023/08/18 03:39:39;;;;;;;5.77;5.17;;;;;;;19.76;nan;99317.22;5071672;28;20472;-76
2023/08/18 03:42:05;;;;;;;5.60;4.70;;;;;;;19.77;nan;99312.75;5066206;28;20912;-76
2023/08/18 03:44:31;;;;;;;9.70;4.93;;;;;;;19.82;nan;99315.75;5070411;28;20275;-76
2023/08/18 03:46:56;;;;;;;5.40;4.90;;;;;;;19.86;nan;99320.59;5067907;28;20988;-76
2023/08/18 03:49:22;;;;;;;5.23;4.17;;;;;;;19.88;nan;99315.09;5065042;28;20556;-76
2023/08/18 03:51:48;;;;;;;5.13;4.37;;;;;;;19.89;nan;99317.59;5070886;28;20228;-76
2023/08/18 03:54:13;;;;;;;6.03;4.37;;;;;;;19.86;nan;99312.59;5067007;28;20424;-76
2023/08/18 03:56:39;;;;;;;5.70;4.70;;;;;;;19.78;nan;99307.25;5072165;28;20196;-77
2023/08/18 03:59:04;;;;;;;6.13;4.50;;;;;;;19.74;nan;99318.38;5071545;28;20770;-76
2023/08/18 04:01:31;;;;;;;4.93;4.13;;;;;;;19.75;nan;99315.56;5073642;28;20204;-77
2023/08/18 04:03:58;;;;;;;5.80;5.20;;;;;;;19.78;nan;99325.06;5074118;28;21302;-76
2023/08/18 04:06:24;;;;;;;7.13;4.80;;;;;;;19.77;nan;99323.41;5068756;28;20446;-77
2023/08/18 04:09:06;;;;;;;8.47;5.20;;;;;;;19.74;nan;99323.72;5070834;28;20430;-76
2023/08/18 04:11:34;;;;;;;5.30;3.90;;;;;;;19.69;nan;99320.75;5069772;28;20443;-77
2023/08/18 04:14:00;;;;;;;5.03;4.40;;;;;;;19.69;nan;99326.06;5070798;28;20450;-76
2023/08/18 04:16:26;;;;;;;4.40;3.77;;;;;;;19.71;nan;99324.88;5072736;28;20465;-77
2023/08/18 04:18:51;;;;;;;6.13;4.00;;;;;;;19.75;nan;99330.72;5074356;28;20442;-76
2023/08/18 04:21:16;;;;;;;6.40;4.50;;;;;;;19.77;nan;99332.25;5071977;28;20204;-76
2023/08/18 04:23:42;;;;;;;5.90;4.23;;;;;;;19.79;nan;99326.72;5071907;28;20284;-76
2023/08/18 04:26:12;;;;;;;5.33;4.30;;;;;;;19.78;nan;99328.56;5070051;28;20688;-76
2023/08/18 04:28:37;;;;;;;5.87;4.30;;;;;;;19.78;nan;99330.41;5071707;28;20441;-77
2023/08/18 04:31:03;;;;;;;5.10;4.33;;;;;;;19.77;nan;99336.75;5069944;28;20482;-76
2023/08/18 04:33:36;;;;;;;6.17;4.83;;;;;;;19.75;nan;99328.06;5066648;28;20205;-77
2023/08/18 04:36:03;;;;;;;9.63;5.53;;;;;;;19.77;nan;99344.75;5070134;28;20441;-76
2023/08/18 04:38:30;;;;;;;6.70;5.10;;;;;;;19.78;nan;99331.22;5065186;28;20761;-76
2023/08/18 04:41:01;;;;;;;6.23;5.50;;;;;;;19.83;nan;99336.91;5067922;28;20476;-76
2023/08/18 04:43:28;;;;;;;5.60;4.43;;;;;;;19.87;nan;99337.41;5069798;28;20463;-76
2023/08/18 04:45:54;;;;;;;5.17;4.17;;;;;;;19.90;nan;99337.06;5070698;28;20486;-75
2023/08/18 04:48:21;;;;;;;4.77;4.37;;;;;;;19.90;nan;99339.75;5067758;28;20451;-75
2023/08/18 04:50:47;;;;;;;4.20;3.60;;;;;;;19.89;nan;99344.25;5070406;28;20200;-76
2023/08/18 04:53:12;;;;;;;4.90;3.83;;;;;;;19.92;nan;99343.09;5069641;28;20438;-75
2023/08/18 04:55:38;;;;;;;5.37;4.50;;;;;;;19.95;nan;99352.59;5068712;28;20206;-75
2023/08/18 04:58:04;;;;;;;10.33;6.53;;;;;;;19.96;nan;99338.28;5068180;28;20208;-76
2023/08/18 05:00:30;;;;;;;6.30;4.40;;;;;;;19.99;nan;99345.94;5069623;28;20454;-76
2023/08/18 05:02:56;;;;;;;4.77;4.37;;;;;;;20.03;nan;99339.25;5069923;28;20479;-76
2023/08/18 05:05:21;;;;;;;8.70;4.37;;;;;;;20.06;nan;99347.78;5074176;28;20735;-76
2023/08/18 05:07:47;;;;;;;4.37;3.00;;;;;;;20.07;nan;99352.09;5076074;28;20588;-75
2023/08/18 05:10:12;;;;;;;5.70;5.30;;;;;;;20.19;nan;99349.94;5076545;28;20199;-76
2023/08/18 05:12:38;;;;;;;6.53;4.80;;;;;;;20.47;nan;99350.47;5073186;28;20351;-76
2023/08/18 05:15:04;;;;;;;5.70;4.27;;;;;;;20.82;nan;99339.59;5076881;28;20259;-76
2023/08/18 05:17:29;;;;;;;4.63;4.20;;;;;;;21.19;nan;99349.69;5074968;28;20097;-76
2023/08/18 05:19:55;;;;;;;6.10;4.07;;;;;;;21.55;nan;99344.72;5071539;28;20178;-76
2023/08/18 05:22:24;;;;;;;4.03;3.43;;;;;;;21.91;nan;99346.84;5076011;28;21224;-76
2023/08/18 05:24:49;;;;;;;6.90;4.57;;;;;;;22.37;nan;99340.69;5073401;28;20539;-76
2023/08/18 05:27:18;;;;;;;8.53;4.67;;;;;;;22.72;nan;99342.72;5067060;28;20204;-76
2023/08/18 05:29:43;;;;;;;7.00;4.03;;;;;;;23.03;nan;99346.28;5076542;28;20200;-76
2023/08/18 05:32:10;;;;;;;4.43;3.70;;;;;;;23.39;nan;99346.38;5077674;28;20491;-76
2023/08/18 05:34:35;;;;;;;5.80;3.90;;;;;;;23.77;nan;99340.88;5071860;28;20767;-76
2023/08/18 05:37:00;;;;;;;6.68;5.15;;;;;;;24.28;nan;99346.13;5073368;28;20427;-76
2023/08/18 05:39:27;;;;;;;5.90;4.00;;;;;;;24.65;nan;99344.16;5078927;28;20206;-76
2023/08/18 05:41:52;;;;;;;6.70;5.00;;;;;;;25.02;nan;99340.28;5073290;28;20209;-76
2023/08/18 05:44:18;;;;;;;6.00;3.50;;;;;;;25.34;nan;99338.84;5072032;28;20449;-76
2023/08/18 05:46:43;;;;;;;6.60;3.83;;;;;;;25.65;nan;99337.50;5073421;28;20842;-77
2023/08/18 05:49:10;;;;;;;6.80;4.17;;;;;;;25.52;nan;99340.13;5072581;28;20865;-76
2023/08/18 05:51:35;;;;;;;4.50;3.13;;;;;;;25.44;nan;99341.16;5064108;28;20688;-76
2023/08/18 05:54:03;;;;;;;5.53;4.07;;;;;;;25.55;nan;99329.84;5070013;28;20459;-76
2023/08/18 05:56:29;;;;;;;4.17;3.77;;;;;;;25.69;nan;99325.31;5065670;28;20485;-76
2023/08/18 05:58:54;;;;;;;4.23;3.43;;;;;;;25.66;nan;99333.81;5065144;28;20422;-76
2023/08/18 06:01:19;;;;;;;6.67;3.93;;;;;;;25.65;nan;99339.38;5066081;28;20217;-77
2023/08/18 06:03:45;;;;;;;4.20;3.67;;;;;;;25.67;nan;99337.31;5061370;28;20808;-74
2023/08/18 06:06:10;;;;;;;4.30;3.63;;;;;;;25.65;nan;99336.69;5064649;28;20185;-77
2023/08/18 06:08:36;;;;;;;5.50;4.00;;;;;;;25.54;nan;99343.47;5069717;28;20200;-77
2023/08/18 06:11:01;;;;;;;5.60;3.67;;;;;;;25.35;nan;99336.97;5063509;28;20209;-77
2023/08/18 06:13:26;;;;;;;3.23;2.93;;;;;;;25.23;nan;99335.91;5066733;28;20190;-76
2023/08/18 06:15:54;;;;;;;8.27;3.77;;;;;;;25.30;nan;99351.03;5065441;28;20194;-76
2023/08/18 06:18:22;;;;;;;8.40;4.10;;;;;;;25.49;nan;99345.94;5068378;28;20296;-77
2023/08/18 06:20:48;;;;;;;8.63;3.80;;;;;;;25.98;nan;99347.59;5067013;28;20462;-77
2023/08/18 06:23:13;;;;;;;4.50;2.80;;;;;;;26.40;nan;99346.38;5066595;28;20475;-77
2023/08/18 06:25:39;;;;;;;6.47;3.60;;;;;;;26.60;nan;99346.41;5069506;28;20248;-76
2023/08/18 06:28:07;;;;;;;5.93;3.43;;;;;;;26.36;nan;99344.31;5063597;28;20187;-76
2023/08/18 06:30:33;;;;;;;4.37;3.17;;;;;;;26.23;nan;99342.44;5063264;28;20280;-76
2023/08/18 06:32:58;;;;;;;3.70;3.40;;;;;;;26.49;nan;99341.59;5065696;28;20936;-77
2023/08/18 06:35:23;;;;;;;5.37;3.73;;;;;;;26.93;nan;99342.84;5060373;28;20287;-77
2023/08/18 06:37:49;;;;;;;6.57;4.07;;;;;;;27.31;nan;99337.59;5066171;28;20763;-77
2023/08/18 06:40:14;;;;;;;3.87;3.47;;;;;;;27.77;nan;99341.94;5064928;28;20208;-77
2023/08/18 06:42:39;;;;;;;6.10;3.17;;;;;;;28.26;nan;99345.00;5062472;28;20212;-77
2023/08/18 06:45:05;;;;;;;4.70;3.33;;;;;;;28.51;nan;99347.72;5067990;28;20204;-77
2023/08/18 06:47:31;;;;;;;3.63;3.07;;;;;;;28.65;nan;99343.03;5066842;28;20197;-77
2023/08/18 06:49:56;;;;;;;5.33;3.60;;;;;;;28.70;nan;99345.91;5067928;28;20492;-77
2023/08/18 06:52:22;;;;;;;8.00;4.90;;;;;;;28.65;nan;99343.88;5064246;28;20242;-77
2023/08/18 06:54:47;;;;;;;4.33;3.50;;;;;;;28.76;nan;99347.72;5063531;28;20835;-76
2023/08/18 06:57:13;;;;;;;6.67;3.50;;;;;;;28.96;nan;99342.13;5065298;28;20681;-77
2023/08/18 06:59:38;;;;;;;4.60;3.10;;;;;;;29.17;nan;99343.59;5065827;28;20192;-77
2023/08/18 07:02:04;;;;;;;4.87;3.30;;;;;;;29.33;nan;99345.69;5064484;28;20208;-77
2023/08/18 07:04:29;;;;;;;5.10;3.10;;;;;;;29.41;nan;99349.97;5065515;28;20189;-77
2023/08/18 07:06:54;;;;;;;4.83;2.80;;;;;;;29.42;nan;99348.09;5067596;28;20191;-75
2023/08/18 07:09:20;;;;;;;4.10;3.27;;;;;;;29.10;nan;99351.75;5067118;28;20204;-76
2023/08/18 07:11:45;;;;;;;3.37;3.17;;;;;;;28.67;nan;99357.16;5068889;28;20189;-77
2023/08/18 07:14:11;;;;;;;5.00;4.23;;;;;;;28.60;nan;99356.41;5068345;28;20676;-77
2023/08/18 07:16:37;;;;;;;3.83;3.20;;;;;;;28.83;nan;99350.34;5070603;28;20262;-77
2023/08/18 07:19:03;;;;;;;7.37;3.93;;;;;;;29.12;nan;99351.56;5070079;28;21230;-77
2023/08/18 07:21:28;;;;;;;6.20;5.10;;;;;;;29.47;nan;99345.53;5069353;28;20485;-76
2023/08/18 07:23:53;;;;;;;6.00;4.20;;;;;;;29.89;nan;99348.31;5068457;28;20470;-75
2023/08/18 07:26:19;;;;;;;4.63;4.13;;;;;;;30.39;nan;99343.44;5066314;28;20203;-75
2023/08/18 07:28:44;;;;;;;6.20;4.70;;;;;;;30.83;nan;99343.13;5067176;28;20221;-76
2023/08/18 07:31:10;;;;;;;5.63;4.70;;;;;;;31.16;nan;99336.25;5068229;28;20691;-75
2023/08/18 07:33:36;;;;;;;4.83;3.83;;;;;;;31.48;nan;99328.53;5070435;28;20218;-75
2023/08/18 07:36:01;;;;;;;6.30;5.57;;;;;;;31.57;nan;99331.69;5066656;28;20433;-75
2023/08/18 07:38:26;;;;;;;6.00;4.30;;;;;;;31.41;nan;99334.09;5069176;28;20201;-76
2023/08/18 07:40:52;;;;;;;5.80;4.17;;;;;;;31.42;nan;99340.34;5065483;28;20680;-76
2023/08/18 07:43:18;;;;;;;8.77;4.00;;;;;;;31.60;nan;99353.75;5066783;28;20211;-76
2023/08/18 07:45:43;;;;;;;8.07;4.57;;;;;;;31.77;nan;99353.81;5065569;28;21265;-75
2023/08/18 07:48:09;;;;;;;5.50;3.30;;;;;;;31.85;nan;99353.41;5067853;28;20219;-75
2023/08/18 07:50:34;;;;;;;5.20;3.27;;;;;;;31.91;nan;99349.72;5066153;28;20216;-76
2023/08/18 07:53:00;;;;;;;5.70;4.00;;;;;;;31.92;nan;99358.72;5027304;28;1061016;-76
2023/08/18 07:55:25;;;;;;;5.90;3.93;;;;;;;32.15;nan;99355.06;5067290;28;20211;-75
2023/08/18 07:57:50;;;;;;;4.97;3.97;;;;;;;32.50;nan;99356.78;5070035;28;20795;-75
2023/08/18 08:00:17;;;;;;;5.53;3.97;;;;;;;32.84;nan;99355.69;5067426;28;20205;-76
2023/08/18 08:02:46;;;;;;;5.93;4.33;;;;;;;33.05;nan;99348.66;5068160;28;20197;-76
2023/08/18 08:05:17;;;;;;;6.87;4.60;;;;;;;33.27;nan;99361.47;5072751;28;20428;-77
2023/08/18 08:07:43;;;;;;;4.90;4.33;;;;;;;33.41;nan;99362.72;5072742;28;20438;-75
2023/08/18 08:10:09;;;;;;;5.47;4.40;;;;;;;33.33;nan;99363.19;5068892;28;20458;-75
2023/08/18 08:12:38;;;;;;;6.87;4.50;;;;;;;33.26;nan;99365.25;5069650;28;20208;-76
2023/08/18 08:15:04;;;;;;;5.43;4.93;;;;;;;33.38;nan;99374.13;5070153;28;20958;-76
2023/08/18 08:17:30;;;;;;;5.20;4.70;;;;;;;33.61;nan;99375.78;5068941;28;20596;-76
2023/08/18 08:20:07;;;;;;;5.30;4.60;;;;;;;33.82;nan;99370.59;5069856;28;20535;-77
2023/08/18 08:22:32;;;;;;;10.77;6.50;;;;;;;33.84;nan;99376.59;5068563;28;20204;-77
2023/08/18 08:24:58;;;;;;;8.53;6.90;;;;;;;33.99;nan;99376.75;5067644;28;20830;-76
2023/08/18 08:27:23;;;;;;;7.40;6.43;;;;;;;34.13;nan;99369.84;5066870;28;20234;-77
2023/08/18 08:29:50;;;;;;;7.97;6.33;;;;;;;34.28;nan;99374.63;5069294;28;20626;-77
2023/08/18 08:32:15;;;;;;;7.90;7.13;;;;;;;34.25;nan;99366.13;5066215;28;20203;-76
2023/08/18 08:34:48;;;;;;;7.83;7.10;;;;;;;33.96;nan;99360.91;5069839;28;20462;-76
2023/08/18 08:37:13;;;;;;;9.38;7.78;;;;;;;33.48;nan;99366.06;5067243;28;20446;-76
2023/08/18 08:39:38;;;;;;;9.13;8.20;;;;;;;33.31;nan;99368.03;5070023;28;20189;-77
2023/08/18 08:42:04;;;;;;;8.50;7.70;;;;;;;33.03;nan;99364.41;5068769;28;20212;-76
2023/08/18 08:44:30;;;;;;;10.03;8.93;;;;;;;32.45;nan;99370.25;5068890;28;20295;-77
2023/08/18 08:46:57;;;;;;;10.37;7.90;;;;;;;32.20;nan;99368.75;5071661;28;20196;-76
2023/08/18 08:49:25;;;;;;;11.67;8.50;;;;;;;32.03;nan;99370.59;5064187;28;20281;-76
2023/08/18 08:51:55;;;;;;;8.87;7.97;;;;;;;31.97;nan;99366.97;5068467;28;20462;-76
2023/08/18 08:54:25;;;;;;;10.27;7.90;;;;;;;32.06;nan;99359.28;5068817;28;20450;-78
2023/08/18 08:56:50;;;;;;;8.27;7.47;;;;;;;32.07;nan;99371.78;5062496;28;20448;-76
2023/08/18 08:59:17;;;;;;;8.33;7.07;;;;;;;31.98;nan;99365.09;5053524;28;20451;-78
2023/08/18 09:01:42;;;;;;;9.33;6.57;;;;;;;31.88;nan;99361.06;5059598;28;20243;-77
2023/08/18 09:04:08;;;;;;;7.80;7.00;;;;;;;31.73;nan;99368.91;5070201;28;20607;-77
2023/08/18 09:06:34;;;;;;;7.17;6.47;;;;;;;31.59;nan;99368.38;5072565;28;20191;-77
2023/08/18 09:09:00;;;;;;;8.37;6.13;;;;;;;31.48;nan;99364.63;5070849;28;20462;-77
2023/08/18 09:11:42;;;;;;;7.40;6.40;;;;;;;31.61;nan;99363.53;5072037;28;20287;-77
2023/08/18 09:14:07;;;;;;;5.67;5.17;;;;;;;31.76;nan;99365.75;5070543;28;20204;-77
2023/08/18 09:16:33;;;;;;;10.23;5.77;;;;;;;31.91;nan;99362.47;5071957;28;21188;-76
2023/08/18 09:19:01;;;;;;;8.40;5.23;;;;;;;32.01;nan;99364.59;5070156;28;20209;-77
2023/08/18 09:21:26;;;;;;;7.83;4.53;;;;;;;32.09;nan;99361.50;5070919;28;20204;-78
2023/08/18 09:26:53;;;;;;;6.83;4.90;;;;;;;32.17;nan;99361.09;5070559;22;20259;-78
2023/08/18 09:29:20;;;;;;;5.80;5.33;;;;;;;32.29;nan;99350.97;5029914;28;21078;-78
2023/08/18 09:31:46;;;;;;;6.60;6.00;;;;;;;32.26;nan;99354.19;5026578;28;20247;-79
2023/08/18 09:34:21;;;;;;;6.23;5.63;;;;;;;32.17;nan;99348.31;5027597;28;20488;-78
2023/08/18 09:36:54;;;;;;;6.90;6.03;;;;;;;32.14;nan;99353.44;5029921;28;20193;-80
2023/08/18 09:39:21;;;;;;;7.10;5.60;;;;;;;32.01;nan;99340.97;5029082;28;20452;-79
2023/08/18 09:41:50;;;;;;;6.30;5.70;;;;;;;31.59;nan;99345.84;5028419;28;20518;-79
2023/08/18 09:44:16;;;;;;;7.40;5.97;;;;;;;31.39;nan;99352.53;5028142;28;20464;-79
2023/08/18 09:46:47;;;;;;;5.43;4.57;;;;;;;31.41;nan;99339.53;5026955;28;20455;-78
2023/08/18 09:49:16;;;;;;;6.60;6.00;;;;;;;31.58;nan;99334.16;5031452;28;20212;-79
2023/08/18 09:51:42;;;;;;;8.47;5.70;;;;;;;31.89;nan;99323.88;5032971;28;20460;-78
2023/08/18 09:54:11;;;;;;;5.97;5.33;;;;;;;32.05;nan;99316.84;5036221;28;20538;-78
2023/08/18 09:56:39;;;;;;;6.50;5.93;;;;;;;32.00;nan;99330.34;5034590;28;20456;-78
2023/08/18 09:59:31;;;;;;;9.97;7.03;;;;;;;32.09;nan;99328.88;5033603;28;20450;-78
2023/08/18 10:01:57;;;;;;;4.73;4.23;;;;;;;32.27;nan;99320.50;5036404;28;20468;-78
2023/08/18 10:04:25;;;;;;;6.83;6.10;;;;;;;32.40;nan;99319.34;5032824;28;20828;-78
2023/08/18 10:06:53;;;;;;;9.00;5.70;;;;;;;32.47;nan;99317.31;5032721;28;20213;-79
2023/08/18 10:09:27;;;;;;;7.57;5.70;;;;;;;32.55;nan;99316.91;5036963;28;20860;-78
2023/08/18 10:11:53;;;;;;;6.53;5.93;;;;;;;32.68;nan;99315.72;5031744;28;20459;-78
2023/08/18 10:14:21;;;;;;;6.13;5.50;;;;;;;32.85;nan;99310.25;5035190;28;20460;-79
2023/08/18 10:16:48;;;;;;;10.70;5.03;;;;;;;32.97;nan;99316.41;5033380;28;20217;-79
2023/08/18 10:19:14;;;;;;;5.70;5.17;;;;;;;33.01;nan;99319.47;5033843;28;20448;-78
2023/08/18 10:21:39;;;;;;;6.57;4.90;;;;;;;33.07;nan;99313.03;5026396;28;20472;-78
2023/08/18 10:24:05;;;;;;;5.77;5.20;;;;;;;33.14;nan;99313.66;5034668;28;20209;-79
2023/08/18 10:26:34;;;;;;;5.53;4.50;;;;;;;33.09;nan;99316.31;5031603;28;20233;-79
2023/08/18 10:29:17;;;;;;;7.30;5.50;;;;;;;33.09;nan;99315.50;5033510;28;20635;-79
2023/08/18 10:31:49;;;;;;;5.27;4.77;;;;;;;33.00;nan;99312.34;5030500;28;20460;-78
2023/08/18 10:34:22;;;;;;;6.27;5.67;;;;;;;33.08;nan;99302.94;5012963;28;20454;-79
2023/08/18 10:36:48;;;;;;;5.33;4.93;;;;;;;33.22;nan;99291.44;5033414;28;20586;-78
2023/08/18 10:39:22;;;;;;;6.03;5.43;;;;;;;33.27;nan;99291.50;5032479;28;20593;-78
2023/08/18 10:42:04;;;;;;;5.10;4.60;;;;;;;33.27;nan;99296.97;5031245;28;20556;-78
2023/08/18 10:44:29;;;;;;;5.00;4.50;;;;;;;33.39;nan;99285.09;5031900;28;20449;-79
2023/08/18 10:46:55;;;;;;;5.37;4.87;;;;;;;33.52;nan;99292.06;5029967;28;21015;-79
2023/08/18 10:49:21;;;;;;;6.10;5.03;;;;;;;33.59;nan;99281.81;5034158;28;20349;-78
2023/08/18 10:51:49;;;;;;;5.30;4.90;;;;;;;33.68;nan;99285.72;5032230;28;20444;-79
2023/08/18 10:54:14;;;;;;;7.60;4.67;;;;;;;33.77;nan;99272.47;5033751;28;20233;-79
2023/08/18 10:56:40;;;;;;;5.33;4.90;;;;;;;33.82;nan;99277.97;5029491;28;20535;-80
2023/08/18 10:59:05;;;;;;;5.00;4.30;;;;;;;33.72;nan;99287.66;5023794;28;20271;-79
2023/08/18 11:01:31;;;;;;;5.27;4.77;;;;;;;33.73;nan;99277.59;5034476;28;20206;-76
2023/08/18 11:03:57;;;;;;;10.00;4.40;;;;;;;33.79;nan;99279.28;5034221;28;20223;-77
2023/08/18 11:06:26;;;;;;;9.40;5.27;;;;;;;33.75;nan;99274.59;5032108;28;20612;-77
2023/08/18 11:08:53;;;;;;;5.73;5.13;;;;;;;33.79;nan;99271.13;5034682;28;20471;-77
2023/08/18 11:11:20;;;;;;;4.90;4.40;;;;;;;33.82;nan;99267.88;5024926;28;20483;-78
2023/08/18 11:13:46;;;;;;;6.27;4.63;;;;;;;33.79;nan;99267.59;5031682;28;20513;-78
2023/08/18 11:16:11;;;;;;;7.07;5.30;;;;;;;33.86;nan;99263.53;5031018;28;20475;-77
2023/08/18 11:18:41;;;;;;;9.07;6.30;;;;;;;33.94;nan;99264.97;5030802;28;20463;-77
2023/08/18 11:21:07;;;;;;;5.60;4.63;;;;;;;34.05;nan;99255.84;5030604;28;20459;-78
2023/08/18 11:23:33;;;;;;;6.97;5.10;;;;;;;34.10;nan;99260.50;5030420;28;20486;-77
2023/08/18 11:25:59;;;;;;;6.07;4.57;;;;;;;34.06;nan;99259.41;5030773;28;20476;-77
2023/08/18 11:28:24;;;;;;;6.30;5.30;;;;;;;34.00;nan;99269.41;5032249;28;20198;-76
2023/08/18 11:30:53;;;;;;;5.20;4.70;;;;;;;34.03;nan;99259.88;5031056;28;20289;-77
2023/08/18 11:33:19;;;;;;;7.23;4.77;;;;;;;34.03;nan;99255.25;5028413;28;20709;-76
2023/08/18 11:35:48;;;;;;;5.90;4.20;;;;;;;34.09;nan;99258.88;5028276;28;21061;-77
2023/08/18 11:38:16;;;;;;;6.37;4.63;;;;;;;34.05;nan;99250.41;5030235;28;20981;-77
2023/08/18 11:40:46;;;;;;;6.03;4.60;;;;;;;34.01;nan;99257.41;5025840;28;20465;-77
2023/08/18 11:43:12;;;;;;;4.10;3.70;;;;;;;33.99;nan;99250.56;5028545;28;20388;-78
2023/08/18 11:45:38;;;;;;;4.83;4.43;;;;;;;33.95;nan;99257.66;5025981;28;20717;-76
2023/08/18 11:48:05;;;;;;;5.87;5.20;;;;;;;33.91;nan;99246.41;5026577;28;20783;-78
2023/08/18 11:51:10;;;;;;;6.80;4.80;;;;;;;33.90;nan;99250.25;5027387;28;20225;-77